sensor_id;sensor_type;location;lat;lon;timestamp;P1;durP1;ratioP1;P2;durP2;ratioP2
41514;SDS011;27247;48.020;16.720;2023-03-14T00:03:15;8.30;;;3.72;;
41514;SDS011;27247;48.020;16.720;2023-03-14T00:07:25;7.90;;;3.45;;
41514;SDS011;27247;48.020;16.720;2023-03-14T00:11:36;5.70;;;3.55;;
41514;SDS011;27247;48.020;16.720;2023-03-14T00:15:46;6.85;;;4.07;;
41514;SDS011;27247;48.020;16.720;2023-03-14T00:19:56;8.00;;;3.45;;
41514;SDS011;27247;48.020;16.720;2023-03-14T00:24:07;9.27;;;3.83;;
41514;SDS011;27247;48.020;16.720;2023-03-14T00:28:18;5.30;;;3.63;;
41514;SDS011;27247;48.020;16.720;2023-03-14T00:32:28;15.55;;;3.78;;
41514;SDS011;27247;48.020;16.720;2023-03-14T00:36:39;5.65;;;3.10;;
41514;SDS011;27247;48.020;16.720;2023-03-14T00:40:50;11.05;;;3.40;;
41514;SDS011;27247;48.020;16.720;2023-03-14T00:45:03;6.75;;;3.05;;
41514;SDS011;27247;48.020;16.720;2023-03-14T00:49:13;7.20;;;2.80;;
41514;SDS011;27247;48.020;16.720;2023-03-14T00:53:24;7.10;;;3.03;;
41514;SDS011;27247;48.020;16.720;2023-03-14T00:57:34;6.78;;;2.95;;
41514;SDS011;27247;48.020;16.720;2023-03-14T01:01:45;8.98;;;3.28;;
41514;SDS011;27247;48.020;16.720;2023-03-14T01:06:05;6.87;;;3.33;;
41514;SDS011;27247;48.020;16.720;2023-03-14T01:10:17;10.60;;;3.00;;
41514;SDS011;27247;48.020;16.720;2023-03-14T01:14:27;7.57;;;3.05;;
41514;SDS011;27247;48.020;16.720;2023-03-14T01:18:38;7.83;;;3.30;;
41514;SDS011;27247;48.020;16.720;2023-03-14T01:22:50;6.00;;;2.67;;
41514;SDS011;27247;48.020;16.720;2023-03-14T01:27:00;5.18;;;2.88;;
41514;SDS011;27247;48.020;16.720;2023-03-14T01:31:11;8.23;;;2.90;;
41514;SDS011;27247;48.020;16.720;2023-03-14T01:35:22;6.07;;;2.65;;
41514;SDS011;27247;48.020;16.720;2023-03-14T01:39:32;9.27;;;3.20;;
41514;SDS011;27247;48.020;16.720;2023-03-14T01:43:43;7.53;;;2.67;;
41514;SDS011;27247;48.020;16.720;2023-03-14T01:47:53;7.82;;;3.35;;
41514;SDS011;27247;48.020;16.720;2023-03-14T01:52:09;10.35;;;4.00;;
41514;SDS011;27247;48.020;16.720;2023-03-14T01:56:22;8.70;;;2.88;;
41514;SDS011;27247;48.020;16.720;2023-03-14T02:00:33;7.78;;;3.08;;
41514;SDS011;27247;48.020;16.720;2023-03-14T02:04:43;8.05;;;2.50;;
41514;SDS011;27247;48.020;16.720;2023-03-14T02:08:55;6.75;;;3.13;;
41514;SDS011;27247;48.020;16.720;2023-03-14T02:13:05;7.68;;;2.78;;
41514;SDS011;27247;48.020;16.720;2023-03-14T02:17:17;6.85;;;3.20;;
41514;SDS011;27247;48.020;16.720;2023-03-14T02:21:43;5.57;;;3.00;;
41514;SDS011;27247;48.020;16.720;2023-03-14T02:26:06;5.45;;;3.03;;
41514;SDS011;27247;48.020;16.720;2023-03-14T02:30:22;5.60;;;2.85;;
41514;SDS011;27247;48.020;16.720;2023-03-14T02:34:34;7.93;;;2.92;;
41514;SDS011;27247;48.020;16.720;2023-03-14T02:43:02;7.10;;;3.03;;
41514;SDS011;27247;48.020;16.720;2023-03-14T02:47:12;6.75;;;2.92;;
41514;SDS011;27247;48.020;16.720;2023-03-14T02:51:23;5.97;;;3.20;;
41514;SDS011;27247;48.020;16.720;2023-03-14T02:55:35;5.70;;;3.00;;
41514;SDS011;27247;48.020;16.720;2023-03-14T02:59:46;8.00;;;3.08;;
41514;SDS011;27247;48.020;16.720;2023-03-14T03:03:56;6.55;;;3.22;;
41514;SDS011;27247;48.020;16.720;2023-03-14T03:08:06;7.65;;;3.00;;
41514;SDS011;27247;48.020;16.720;2023-03-14T03:12:18;5.70;;;3.38;;
41514;SDS011;27247;48.020;16.720;2023-03-14T03:16:28;5.05;;;2.58;;
41514;SDS011;27247;48.020;16.720;2023-03-14T03:20:39;11.65;;;3.03;;
41514;SDS011;27247;48.020;16.720;2023-03-14T03:24:49;6.72;;;3.13;;
41514;SDS011;27247;48.020;16.720;2023-03-14T03:28:59;6.32;;;2.78;;
41514;SDS011;27247;48.020;16.720;2023-03-14T03:33:10;6.75;;;2.80;;
41514;SDS011;27247;48.020;16.720;2023-03-14T03:37:21;4.75;;;3.20;;
41514;SDS011;27247;48.020;16.720;2023-03-14T03:41:32;8.27;;;3.20;;
41514;SDS011;27247;48.020;16.720;2023-03-14T03:45:42;7.45;;;3.03;;
41514;SDS011;27247;48.020;16.720;2023-03-14T03:49:53;6.93;;;3.05;;
41514;SDS011;27247;48.020;16.720;2023-03-14T03:54:03;6.28;;;2.63;;
41514;SDS011;27247;48.020;16.720;2023-03-14T03:58:13;4.38;;;2.72;;
41514;SDS011;27247;48.020;16.720;2023-03-14T04:02:24;5.15;;;2.88;;
41514;SDS011;27247;48.020;16.720;2023-03-14T04:06:34;7.13;;;3.42;;
41514;SDS011;27247;48.020;16.720;2023-03-14T04:10:45;6.47;;;3.13;;
41514;SDS011;27247;48.020;16.720;2023-03-14T04:14:55;7.53;;;3.17;;
41514;SDS011;27247;48.020;16.720;2023-03-14T04:19:05;5.45;;;3.60;;
41514;SDS011;27247;48.020;16.720;2023-03-14T04:23:16;5.53;;;3.03;;
41514;SDS011;27247;48.020;16.720;2023-03-14T04:27:26;12.02;;;3.83;;
41514;SDS011;27247;48.020;16.720;2023-03-14T04:31:36;7.17;;;3.37;;
41514;SDS011;27247;48.020;16.720;2023-03-14T04:35:47;5.57;;;3.25;;
41514;SDS011;27247;48.020;16.720;2023-03-14T04:40:00;7.22;;;3.40;;
41514;SDS011;27247;48.020;16.720;2023-03-14T04:44:10;7.65;;;3.42;;
41514;SDS011;27247;48.020;16.720;2023-03-14T04:48:20;6.18;;;3.38;;
41514;SDS011;27247;48.020;16.720;2023-03-14T04:52:31;9.98;;;4.70;;
41514;SDS011;27247;48.020;16.720;2023-03-14T04:56:41;7.90;;;5.22;;
41514;SDS011;27247;48.020;16.720;2023-03-14T05:00:52;5.85;;;4.00;;
41514;SDS011;27247;48.020;16.720;2023-03-14T05:05:02;7.25;;;4.10;;
41514;SDS011;27247;48.020;16.720;2023-03-14T05:09:13;4.57;;;3.20;;
41514;SDS011;27247;48.020;16.720;2023-03-14T05:13:25;8.75;;;3.03;;
41514;SDS011;27247;48.020;16.720;2023-03-14T05:17:35;6.30;;;3.17;;
41514;SDS011;27247;48.020;16.720;2023-03-14T05:21:46;8.15;;;4.07;;
41514;SDS011;27247;48.020;16.720;2023-03-14T05:25:56;8.10;;;3.85;;
41514;SDS011;27247;48.020;16.720;2023-03-14T05:30:07;7.55;;;3.90;;
41514;SDS011;27247;48.020;16.720;2023-03-14T05:34:18;10.45;;;4.05;;
41514;SDS011;27247;48.020;16.720;2023-03-14T05:38:29;7.70;;;3.93;;
41514;SDS011;27247;48.020;16.720;2023-03-14T05:42:39;11.45;;;4.90;;
41514;SDS011;27247;48.020;16.720;2023-03-14T05:46:49;9.90;;;4.53;;
41514;SDS011;27247;48.020;16.720;2023-03-14T05:51:00;9.77;;;4.57;;
41514;SDS011;27247;48.020;16.720;2023-03-14T05:55:10;10.00;;;4.38;;
41514;SDS011;27247;48.020;16.720;2023-03-14T05:59:21;8.85;;;4.35;;
41514;SDS011;27247;48.020;16.720;2023-03-14T06:03:31;15.73;;;5.05;;
41514;SDS011;27247;48.020;16.720;2023-03-14T06:07:42;8.15;;;4.05;;
41514;SDS011;27247;48.020;16.720;2023-03-14T06:11:52;12.05;;;3.38;;
41514;SDS011;27247;48.020;16.720;2023-03-14T06:16:03;8.07;;;3.45;;
41514;SDS011;27247;48.020;16.720;2023-03-14T06:20:13;8.75;;;3.90;;
41514;SDS011;27247;48.020;16.720;2023-03-14T06:24:24;7.85;;;4.50;;
41514;SDS011;27247;48.020;16.720;2023-03-14T06:28:34;11.48;;;5.95;;
41514;SDS011;27247;48.020;16.720;2023-03-14T06:32:44;11.47;;;5.27;;
41514;SDS011;27247;48.020;16.720;2023-03-14T06:36:55;9.77;;;4.78;;
41514;SDS011;27247;48.020;16.720;2023-03-14T06:41:06;16.90;;;5.43;;
41514;SDS011;27247;48.020;16.720;2023-03-14T06:45:17;13.30;;;5.28;;
41514;SDS011;27247;48.020;16.720;2023-03-14T06:49:27;12.73;;;5.00;;
41514;SDS011;27247;48.020;16.720;2023-03-14T06:53:38;12.75;;;5.85;;
41514;SDS011;27247;48.020;16.720;2023-03-14T06:57:48;12.00;;;5.78;;
41514;SDS011;27247;48.020;16.720;2023-03-14T07:01:58;11.07;;;5.68;;
41514;SDS011;27247;48.020;16.720;2023-03-14T07:06:09;15.13;;;5.28;;
41514;SDS011;27247;48.020;16.720;2023-03-14T07:10:19;11.75;;;5.82;;
41514;SDS011;27247;48.020;16.720;2023-03-14T07:14:30;12.93;;;5.22;;
41514;SDS011;27247;48.020;16.720;2023-03-14T07:18:40;9.35;;;5.07;;
41514;SDS011;27247;48.020;16.720;2023-03-14T07:22:51;11.88;;;5.90;;
41514;SDS011;27247;48.020;16.720;2023-03-14T07:27:01;13.80;;;7.53;;
41514;SDS011;27247;48.020;16.720;2023-03-14T07:31:11;15.13;;;7.32;;
41514;SDS011;27247;48.020;16.720;2023-03-14T07:35:22;17.17;;;7.13;;
41514;SDS011;27247;48.020;16.720;2023-03-14T07:39:32;16.17;;;6.57;;
41514;SDS011;27247;48.020;16.720;2023-03-14T07:43:43;11.88;;;5.97;;
41514;SDS011;27247;48.020;16.720;2023-03-14T07:47:53;24.27;;;7.93;;
41514;SDS011;27247;48.020;16.720;2023-03-14T07:52:07;18.85;;;6.70;;
41514;SDS011;27247;48.020;16.720;2023-03-14T07:56:17;14.18;;;6.63;;
41514;SDS011;27247;48.020;16.720;2023-03-14T08:00:27;12.43;;;6.90;;
41514;SDS011;27247;48.020;16.720;2023-03-14T08:04:38;16.13;;;6.38;;
41514;SDS011;27247;48.020;16.720;2023-03-14T08:08:49;11.23;;;6.30;;
41514;SDS011;27247;48.020;16.720;2023-03-14T08:13:00;13.52;;;6.88;;
41514;SDS011;27247;48.020;16.720;2023-03-14T08:17:11;12.23;;;6.50;;
41514;SDS011;27247;48.020;16.720;2023-03-14T08:21:22;13.85;;;7.20;;
41514;SDS011;27247;48.020;16.720;2023-03-14T08:25:32;12.32;;;6.82;;
41514;SDS011;27247;48.020;16.720;2023-03-14T08:29:43;16.67;;;6.00;;
41514;SDS011;27247;48.020;16.720;2023-03-14T08:33:54;15.40;;;5.03;;
41514;SDS011;27247;48.020;16.720;2023-03-14T08:38:05;12.07;;;5.65;;
41514;SDS011;27247;48.020;16.720;2023-03-14T08:42:15;19.25;;;5.90;;
41514;SDS011;27247;48.020;16.720;2023-03-14T08:46:25;17.48;;;6.07;;
41514;SDS011;27247;48.020;16.720;2023-03-14T08:50:36;9.85;;;4.82;;
41514;SDS011;27247;48.020;16.720;2023-03-14T08:54:46;11.57;;;4.10;;
41514;SDS011;27247;48.020;16.720;2023-03-14T08:58:56;5.45;;;2.85;;
41514;SDS011;27247;48.020;16.720;2023-03-14T09:03:07;9.02;;;2.47;;
41514;SDS011;27247;48.020;16.720;2023-03-14T09:07:17;6.32;;;3.45;;
41514;SDS011;27247;48.020;16.720;2023-03-14T09:11:28;7.30;;;3.95;;
41514;SDS011;27247;48.020;16.720;2023-03-14T09:15:38;7.75;;;3.58;;
41514;SDS011;27247;48.020;16.720;2023-03-14T09:19:49;6.05;;;2.83;;
41514;SDS011;27247;48.020;16.720;2023-03-14T09:23:59;11.38;;;3.17;;
41514;SDS011;27247;48.020;16.720;2023-03-14T09:28:09;6.18;;;2.47;;
41514;SDS011;27247;48.020;16.720;2023-03-14T09:32:20;14.70;;;2.90;;
41514;SDS011;27247;48.020;16.720;2023-03-14T09:36:30;7.40;;;2.83;;
41514;SDS011;27247;48.020;16.720;2023-03-14T09:40:41;4.40;;;2.72;;
41514;SDS011;27247;48.020;16.720;2023-03-14T09:45:02;5.07;;;1.92;;
41514;SDS011;27247;48.020;16.720;2023-03-14T09:49:21;2.53;;;1.88;;
41514;SDS011;27247;48.020;16.720;2023-03-14T09:57:48;6.75;;;2.20;;
41514;SDS011;27247;48.020;16.720;2023-03-14T10:02:01;6.00;;;2.60;;
41514;SDS011;27247;48.020;16.720;2023-03-14T10:06:27;3.78;;;2.00;;
41514;SDS011;27247;48.020;16.720;2023-03-14T10:10:39;4.15;;;2.28;;
41514;SDS011;27247;48.020;16.720;2023-03-14T10:14:51;5.32;;;2.35;;
41514;SDS011;27247;48.020;16.720;2023-03-14T10:19:05;7.80;;;2.45;;
41514;SDS011;27247;48.020;16.720;2023-03-14T10:23:27;7.40;;;2.40;;
41514;SDS011;27247;48.020;16.720;2023-03-14T10:27:38;8.23;;;2.63;;
41514;SDS011;27247;48.020;16.720;2023-03-14T10:32:00;8.32;;;3.00;;
41514;SDS011;27247;48.020;16.720;2023-03-14T10:36:20;7.95;;;2.63;;
41514;SDS011;27247;48.020;16.720;2023-03-14T10:40:33;9.25;;;2.70;;
41514;SDS011;27247;48.020;16.720;2023-03-14T10:44:58;6.93;;;2.80;;
41514;SDS011;27247;48.020;16.720;2023-03-14T10:49:31;8.40;;;2.40;;
41514;SDS011;27247;48.020;16.720;2023-03-14T10:53:47;8.35;;;2.47;;
41514;SDS011;27247;48.020;16.720;2023-03-14T10:58:22;3.97;;;2.38;;
41514;SDS011;27247;48.020;16.720;2023-03-14T11:02:40;34.97;;;8.88;;
41514;SDS011;27247;48.020;16.720;2023-03-14T11:07:33;8.95;;;4.03;;
41514;SDS011;27247;48.020;16.720;2023-03-14T11:11:48;5.50;;;3.67;;
41514;SDS011;27247;48.020;16.720;2023-03-14T11:38:49;13.82;;;4.22;;
41514;SDS011;27247;48.020;16.720;2023-03-14T11:42:58;9.43;;;4.40;;
41514;SDS011;27247;48.020;16.720;2023-03-14T11:47:17;12.57;;;4.28;;
41514;SDS011;27247;48.020;16.720;2023-03-14T11:51:44;9.70;;;3.10;;
41514;SDS011;27247;48.020;16.720;2023-03-14T11:55:58;3.22;;;1.98;;
41514;SDS011;27247;48.020;16.720;2023-03-14T12:05:12;7.13;;;2.55;;
41514;SDS011;27247;48.020;16.720;2023-03-14T12:09:07;5.25;;;2.85;;
41514;SDS011;27247;48.020;16.720;2023-03-14T12:13:20;3.83;;;2.30;;
41514;SDS011;27247;48.020;16.720;2023-03-14T12:17:35;2.25;;;1.42;;
41514;SDS011;27247;48.020;16.720;2023-03-14T12:21:49;1.88;;;1.30;;
41514;SDS011;27247;48.020;16.720;2023-03-14T12:30:27;6.38;;;0.85;;
41514;SDS011;27247;48.020;16.720;2023-03-14T12:34:40;0.68;;;0.68;;
41514;SDS011;27247;48.020;16.720;2023-03-14T12:38:56;1.25;;;0.98;;
41514;SDS011;27247;48.020;16.720;2023-03-14T12:43:35;3.67;;;1.77;;
41514;SDS011;27247;48.020;16.720;2023-03-14T12:52:11;2.15;;;1.10;;
41514;SDS011;27247;48.020;16.720;2023-03-14T12:56:40;2.58;;;1.02;;
41514;SDS011;27247;48.020;16.720;2023-03-14T13:01:02;3.75;;;2.25;;
41514;SDS011;27247;48.020;16.720;2023-03-14T13:05:21;6.93;;;4.00;;
41514;SDS011;27247;48.020;16.720;2023-03-14T13:13:57;2.43;;;1.70;;
41514;SDS011;27247;48.020;16.720;2023-03-14T13:18:15;1.20;;;1.02;;
41514;SDS011;27247;48.020;16.720;2023-03-14T13:22:47;2.75;;;1.23;;
41514;SDS011;27247;48.020;16.720;2023-03-14T13:26:58;1.17;;;0.55;;
41514;SDS011;27247;48.020;16.720;2023-03-14T13:31:12;2.63;;;0.80;;
41514;SDS011;27247;48.020;16.720;2023-03-14T13:35:41;4.57;;;2.28;;
41514;SDS011;27247;48.020;16.720;2023-03-14T13:39:55;5.38;;;3.00;;
41514;SDS011;27247;48.020;16.720;2023-03-14T13:44:07;6.25;;;3.40;;
41514;SDS011;27247;48.020;16.720;2023-03-14T13:48:25;2.75;;;1.38;;
41514;SDS011;27247;48.020;16.720;2023-03-14T13:52:38;6.57;;;3.17;;
41514;SDS011;27247;48.020;16.720;2023-03-14T13:56:49;4.60;;;2.03;;
41514;SDS011;27247;48.020;16.720;2023-03-14T14:01:19;4.03;;;1.30;;
41514;SDS011;27247;48.020;16.720;2023-03-14T14:05:33;1.33;;;0.40;;
41514;SDS011;27247;48.020;16.720;2023-03-14T14:09:48;2.70;;;1.00;;
41514;SDS011;27247;48.020;16.720;2023-03-14T14:14:00;2.65;;;1.20;;
41514;SDS011;27247;48.020;16.720;2023-03-14T14:18:12;3.28;;;1.20;;
41514;SDS011;27247;48.020;16.720;2023-03-14T14:22:26;1.75;;;0.40;;
41514;SDS011;27247;48.020;16.720;2023-03-14T14:26:39;2.10;;;0.50;;
41514;SDS011;27247;48.020;16.720;2023-03-14T14:35:24;3.80;;;0.60;;
41514;SDS011;27247;48.020;16.720;2023-03-14T14:39:35;6.10;;;1.90;;
41514;SDS011;27247;48.020;16.720;2023-03-14T14:43:49;11.98;;;6.88;;
41514;SDS011;27247;48.020;16.720;2023-03-14T14:52:17;7.77;;;5.00;;
41514;SDS011;27247;48.020;16.720;2023-03-14T14:56:47;4.00;;;1.30;;
41514;SDS011;27247;48.020;16.720;2023-03-14T15:05:18;1.88;;;1.27;;
41514;SDS011;27247;48.020;16.720;2023-03-14T15:09:30;2.65;;;1.42;;
41514;SDS011;27247;48.020;16.720;2023-03-14T15:13:40;25.03;;;11.37;;
41514;SDS011;27247;48.020;16.720;2023-03-14T15:17:51;28.23;;;14.20;;
41514;SDS011;27247;48.020;16.720;2023-03-14T15:22:01;12.80;;;6.60;;
41514;SDS011;27247;48.020;16.720;2023-03-14T15:26:13;29.85;;;13.82;;
41514;SDS011;27247;48.020;16.720;2023-03-14T15:30:25;8.35;;;4.30;;
41514;SDS011;27247;48.020;16.720;2023-03-14T15:34:35;7.47;;;4.57;;
41514;SDS011;27247;48.020;16.720;2023-03-14T15:38:45;4.30;;;2.50;;
41514;SDS011;27247;48.020;16.720;2023-03-14T15:42:56;15.83;;;10.27;;
41514;SDS011;27247;48.020;16.720;2023-03-14T15:47:07;33.40;;;14.60;;
41514;SDS011;27247;48.020;16.720;2023-03-14T15:51:19;23.38;;;11.70;;
41514;SDS011;27247;48.020;16.720;2023-03-14T15:55:30;11.73;;;7.38;;
41514;SDS011;27247;48.020;16.720;2023-03-14T15:59:40;11.40;;;4.53;;
41514;SDS011;27247;48.020;16.720;2023-03-14T16:03:51;7.18;;;2.45;;
41514;SDS011;27247;48.020;16.720;2023-03-14T16:08:02;13.70;;;6.47;;
41514;SDS011;27247;48.020;16.720;2023-03-14T16:12:15;8.65;;;5.30;;
41514;SDS011;27247;48.020;16.720;2023-03-14T16:16:26;9.40;;;4.43;;
41514;SDS011;27247;48.020;16.720;2023-03-14T16:20:36;9.20;;;2.92;;
41514;SDS011;27247;48.020;16.720;2023-03-14T16:24:46;9.73;;;4.53;;
41514;SDS011;27247;48.020;16.720;2023-03-14T16:28:57;4.75;;;3.15;;
41514;SDS011;27247;48.020;16.720;2023-03-14T16:33:08;7.13;;;4.38;;
41514;SDS011;27247;48.020;16.720;2023-03-14T16:37:19;9.45;;;5.00;;
41514;SDS011;27247;48.020;16.720;2023-03-14T16:41:30;7.68;;;2.90;;
41514;SDS011;27247;48.020;16.720;2023-03-14T16:45:41;7.65;;;3.15;;
41514;SDS011;27247;48.020;16.720;2023-03-14T16:49:52;5.25;;;2.20;;
41514;SDS011;27247;48.020;16.720;2023-03-14T16:54:04;1.70;;;1.30;;
41514;SDS011;27247;48.020;16.720;2023-03-14T16:58:14;2.42;;;1.13;;
41514;SDS011;27247;48.020;16.720;2023-03-14T17:02:25;2.42;;;1.60;;
41514;SDS011;27247;48.020;16.720;2023-03-14T17:06:36;3.40;;;1.85;;
41514;SDS011;27247;48.020;16.720;2023-03-14T17:10:47;3.65;;;2.58;;
41514;SDS011;27247;48.020;16.720;2023-03-14T17:15:01;3.15;;;1.48;;
41514;SDS011;27247;48.020;16.720;2023-03-14T17:19:11;3.08;;;1.98;;
41514;SDS011;27247;48.020;16.720;2023-03-14T17:23:22;3.15;;;1.98;;
41514;SDS011;27247;48.020;16.720;2023-03-14T17:27:34;2.78;;;1.92;;
41514;SDS011;27247;48.020;16.720;2023-03-14T17:31:45;3.72;;;1.67;;
41514;SDS011;27247;48.020;16.720;2023-03-14T17:35:55;5.28;;;1.40;;
41514;SDS011;27247;48.020;16.720;2023-03-14T17:40:06;2.90;;;1.52;;
41514;SDS011;27247;48.020;16.720;2023-03-14T17:44:21;2.03;;;1.52;;
41514;SDS011;27247;48.020;16.720;2023-03-14T17:48:31;3.80;;;1.60;;
41514;SDS011;27247;48.020;16.720;2023-03-14T17:52:42;2.78;;;2.00;;
41514;SDS011;27247;48.020;16.720;2023-03-14T17:56:53;12.45;;;6.82;;
41514;SDS011;27247;48.020;16.720;2023-03-14T18:01:14;5.13;;;3.65;;
41514;SDS011;27247;48.020;16.720;2023-03-14T18:05:27;12.13;;;6.10;;
41514;SDS011;27247;48.020;16.720;2023-03-14T18:09:39;10.25;;;5.90;;
41514;SDS011;27247;48.020;16.720;2023-03-14T18:13:50;22.30;;;12.25;;
41514;SDS011;27247;48.020;16.720;2023-03-14T18:18:01;19.10;;;10.80;;
41514;SDS011;27247;48.020;16.720;2023-03-14T18:22:12;9.98;;;4.75;;
41514;SDS011;27247;48.020;16.720;2023-03-14T18:26:25;12.55;;;5.60;;
41514;SDS011;27247;48.020;16.720;2023-03-14T18:30:36;7.65;;;3.92;;
41514;SDS011;27247;48.020;16.720;2023-03-14T18:34:48;4.28;;;1.95;;
41514;SDS011;27247;48.020;16.720;2023-03-14T18:38:59;7.55;;;2.00;;
41514;SDS011;27247;48.020;16.720;2023-03-14T18:43:09;8.02;;;1.98;;
41514;SDS011;27247;48.020;16.720;2023-03-14T18:47:20;4.57;;;2.60;;
41514;SDS011;27247;48.020;16.720;2023-03-14T18:51:36;4.32;;;3.00;;
41514;SDS011;27247;48.020;16.720;2023-03-14T18:55:47;5.68;;;3.58;;
41514;SDS011;27247;48.020;16.720;2023-03-14T19:00:04;10.43;;;7.00;;
41514;SDS011;27247;48.020;16.720;2023-03-14T19:04:16;30.88;;;16.08;;
41514;SDS011;27247;48.020;16.720;2023-03-14T19:08:27;20.38;;;12.00;;
41514;SDS011;27247;48.020;16.720;2023-03-14T19:12:38;12.60;;;9.45;;
41514;SDS011;27247;48.020;16.720;2023-03-14T19:16:50;9.00;;;6.13;;
41514;SDS011;27247;48.020;16.720;2023-03-14T19:21:07;5.68;;;5.03;;
41514;SDS011;27247;48.020;16.720;2023-03-14T19:25:21;7.85;;;2.85;;
41514;SDS011;27247;48.020;16.720;2023-03-14T19:29:32;7.13;;;4.00;;
41514;SDS011;27247;48.020;16.720;2023-03-14T19:33:48;9.23;;;5.30;;
41514;SDS011;27247;48.020;16.720;2023-03-14T19:37:59;5.68;;;2.75;;
41514;SDS011;27247;48.020;16.720;2023-03-14T19:42:10;1.83;;;1.33;;
41514;SDS011;27247;48.020;16.720;2023-03-14T19:46:21;1.42;;;0.50;;
41514;SDS011;27247;48.020;16.720;2023-03-14T19:50:33;1.20;;;0.80;;
41514;SDS011;27247;48.020;16.720;2023-03-14T19:54:45;0.52;;;0.40;;
41514;SDS011;27247;48.020;16.720;2023-03-14T19:58:56;0.30;;;0.25;;
41514;SDS011;27247;48.020;16.720;2023-03-14T20:03:07;1.15;;;0.50;;
41514;SDS011;27247;48.020;16.720;2023-03-14T20:07:19;1.65;;;0.50;;
41514;SDS011;27247;48.020;16.720;2023-03-14T20:11:31;0.43;;;0.40;;
41514;SDS011;27247;48.020;16.720;2023-03-14T20:15:43;2.25;;;0.77;;
41514;SDS011;27247;48.020;16.720;2023-03-14T20:19:54;3.03;;;0.70;;
41514;SDS011;27247;48.020;16.720;2023-03-14T20:24:05;2.00;;;0.57;;
41514;SDS011;27247;48.020;16.720;2023-03-14T20:28:16;2.78;;;0.70;;
41514;SDS011;27247;48.020;16.720;2023-03-14T20:32:27;0.70;;;0.60;;
41514;SDS011;27247;48.020;16.720;2023-03-14T20:36:38;1.50;;;0.80;;
41514;SDS011;27247;48.020;16.720;2023-03-14T20:40:49;3.35;;;0.73;;
41514;SDS011;27247;48.020;16.720;2023-03-14T20:45:00;1.38;;;0.70;;
41514;SDS011;27247;48.020;16.720;2023-03-14T20:49:11;1.70;;;1.02;;
41514;SDS011;27247;48.020;16.720;2023-03-14T20:53:22;1.50;;;0.60;;
41514;SDS011;27247;48.020;16.720;2023-03-14T20:57:33;3.03;;;0.90;;
41514;SDS011;27247;48.020;16.720;2023-03-14T21:01:44;3.75;;;1.35;;
41514;SDS011;27247;48.020;16.720;2023-03-14T21:05:56;1.05;;;0.80;;
41514;SDS011;27247;48.020;16.720;2023-03-14T21:10:08;2.28;;;0.82;;
41514;SDS011;27247;48.020;16.720;2023-03-14T21:14:20;2.42;;;0.73;;
41514;SDS011;27247;48.020;16.720;2023-03-14T21:18:31;3.75;;;0.90;;
41514;SDS011;27247;48.020;16.720;2023-03-14T21:22:43;1.95;;;0.65;;
41514;SDS011;27247;48.020;16.720;2023-03-14T21:26:53;1.85;;;0.85;;
41514;SDS011;27247;48.020;16.720;2023-03-14T21:31:05;1.05;;;0.90;;
41514;SDS011;27247;48.020;16.720;2023-03-14T21:35:17;2.70;;;1.10;;
41514;SDS011;27247;48.020;16.720;2023-03-14T21:39:28;1.88;;;1.20;;
41514;SDS011;27247;48.020;16.720;2023-03-14T21:43:40;2.10;;;0.90;;
41514;SDS011;27247;48.020;16.720;2023-03-14T21:47:53;2.25;;;1.42;;
41514;SDS011;27247;48.020;16.720;2023-03-14T21:52:08;4.55;;;0.90;;
41514;SDS011;27247;48.020;16.720;2023-03-14T21:56:21;2.35;;;0.93;;
41514;SDS011;27247;48.020;16.720;2023-03-14T22:00:35;2.70;;;0.98;;
41514;SDS011;27247;48.020;16.720;2023-03-14T22:04:46;3.03;;;0.80;;
41514;SDS011;27247;48.020;16.720;2023-03-14T22:08:57;3.50;;;1.02;;
41514;SDS011;27247;48.020;16.720;2023-03-14T22:13:07;2.65;;;0.65;;
41514;SDS011;27247;48.020;16.720;2023-03-14T22:17:17;1.08;;;0.70;;
41514;SDS011;27247;48.020;16.720;2023-03-14T22:21:29;2.58;;;1.02;;
41514;SDS011;27247;48.020;16.720;2023-03-14T22:25:41;2.70;;;1.10;;
41514;SDS011;27247;48.020;16.720;2023-03-14T22:29:52;4.45;;;1.02;;
41514;SDS011;27247;48.020;16.720;2023-03-14T22:34:02;3.92;;;0.82;;
41514;SDS011;27247;48.020;16.720;2023-03-14T22:38:13;7.75;;;1.42;;
41514;SDS011;27247;48.020;16.720;2023-03-14T22:42:23;4.00;;;1.35;;
41514;SDS011;27247;48.020;16.720;2023-03-14T22:46:33;2.53;;;0.80;;
41514;SDS011;27247;48.020;16.720;2023-03-14T22:50:44;1.60;;;0.93;;
41514;SDS011;27247;48.020;16.720;2023-03-14T22:54:54;4.13;;;0.80;;
41514;SDS011;27247;48.020;16.720;2023-03-14T22:59:04;3.83;;;0.90;;
41514;SDS011;27247;48.020;16.720;2023-03-14T23:03:15;3.63;;;1.00;;
41514;SDS011;27247;48.020;16.720;2023-03-14T23:07:25;3.90;;;0.95;;
41514;SDS011;27247;48.020;16.720;2023-03-14T23:11:35;4.30;;;0.97;;
41514;SDS011;27247;48.020;16.720;2023-03-14T23:15:46;4.72;;;0.80;;
41514;SDS011;27247;48.020;16.720;2023-03-14T23:19:56;5.68;;;1.02;;
41514;SDS011;27247;48.020;16.720;2023-03-14T23:24:08;2.92;;;0.80;;
41514;SDS011;27247;48.020;16.720;2023-03-14T23:28:18;3.92;;;0.73;;
41514;SDS011;27247;48.020;16.720;2023-03-14T23:32:31;3.13;;;0.90;;
41514;SDS011;27247;48.020;16.720;2023-03-14T23:36:42;2.30;;;0.90;;
41514;SDS011;27247;48.020;16.720;2023-03-14T23:40:56;3.92;;;1.20;;
41514;SDS011;27247;48.020;16.720;2023-03-14T23:45:07;4.93;;;1.17;;
41514;SDS011;27247;48.020;16.720;2023-03-14T23:49:18;1.27;;;0.85;;
41514;SDS011;27247;48.020;16.720;2023-03-14T23:53:29;3.17;;;1.00;;
41514;SDS011;27247;48.020;16.720;2023-03-14T23:57:40;3.40;;;1.48;;
